Latest Weather Observations for Bathurst Airport

IDN60801

Issued at 1:22 am EDT Thursday 14 November 2019 (issued every 10 minutes, with the page automatically refreshed every 10 minutes)

About weather observations | Map of weather stations | Latest weather observations for NSW | Other Formats
Station Details ID: 063291 Name: BATHURST AIRPORT AWS Lat: -33.41 Lon: 149.65 Height: 744.5 m
Data from the previous 72 hours. | See also: Recent months at Bathurst Airport
Date/Time
EDT
Temp
°C
App
Temp
°C
Dew
Point
°C
Rel
Hum
%
Delta-T
°C
Wind Press
QNH
hPa
Press
MSL
hPa
Rain since
9am
mm
Dir  Spd
km/h
Gust
km/h
Spd
kts
Gust
kts
14/01:00am 9.7 7.4 -2.6 42 4.9 CALM 0 0 0 0 1017.8 1015.4 0.0
14/12:30am 9.4 7.1 -2.5 43 4.7 CALM 0 0 0 0 1018.1 1015.7 0.0
14/12:00am 9.2 5.7 -2.7 43 4.7 WSW 6 9 3 5 1018.0 1015.6 0.0
 
Date/Time
EDT
Temp
°C
App
Temp
°C
Dew
Point
°C
Rel
Hum
%
Delta-T
°C
Wind Press
QNH
hPa
Press
MSL
hPa
Rain since
9am
mm
Dir  Spd
km/h
Gust
km/h
Spd
kts
Gust
kts
13/11:30pm 9.7 5.6 -2.9 41 4.9 SW 9 15 5 8 1018.0 1015.6 0.0
13/11:00pm 10.8 8.0 -2.9 38 5.4 WNW 2 17 1 9 1018.0 1015.6 0.0
13/10:30pm 10.8 7.6 -3.3 37 5.5 SW 4 9 2 5 1018.0 1015.6 0.0
13/10:00pm 11.5 6.6 -3.4 35 5.9 WSW 13 17 7 9 1017.9 1015.5 0.0
13/09:30pm 11.7 6.4 -3.2 35 5.9 SW 15 20 8 11 1017.6 1015.2 0.0
13/09:00pm 11.4 7.2 -3.5 35 5.9 SW 9 13 5 7 1017.2 1014.8 0.0
13/08:30pm 13.2 7.5 -3.5 31 6.7 WSW 17 22 9 12 1016.7 1014.3 0.0
13/08:00pm 14.0 7.4 -3.7 29 7.1 WSW 22 32 12 17 1016.4 1014.0 0.0
13/07:30pm 15.0 8.3 -3.8 27 7.6 W 22 32 12 17 1016.1 1013.6 0.0
13/07:00pm 16.4 8.5 -4.8 23 8.6 W 28 35 15 19 1015.4 1013.0 0.0
13/06:30pm 17.3 10.2 -4.6 22 9.0 W 24 33 13 18 1014.9 1012.4 0.0
13/06:00pm 18.2 11.0 -5.1 20 9.5 WSW 24 33 13 18 1014.8 1012.3 0.0
13/05:30pm 18.2 10.2 -5.8 19 9.7 WSW 28 39 15 21 1014.6 1012.1 0.0
13/05:00pm 18.8 10.2 -7.5 16 10.3 WSW 30 43 16 23 1014.7 1012.2 0.0
13/04:30pm 18.6 11.6 -7.7 16 10.2 WSW 22 37 12 20 1014.3 1011.9 0.0
13/04:00pm 18.7 11.4 -6.1 18 10.0 W 24 35 13 19 1014.4 1012.0 0.0
13/03:30pm 18.9 11.6 -6.7 17 10.2 WSW 24 35 13 19 1014.8 1012.3 0.0
13/03:00pm 18.5 12.0 -6.2 18 9.9 W 20 33 11 18 1015.1 1012.6 0.0
13/02:30pm 18.4 11.0 -3.7 22 9.3 SW 26 43 14 23 1015.5 1013.1 0.0
13/02:00pm 16.9 9.4 -4.9 22 8.8 SW 26 39 14 21 1016.2 1013.7 0.0
13/01:30pm 16.6 9.0 -5.2 22 8.7 WSW 26 41 14 22 1016.3 1013.8 0.0
13/01:00pm 16.3 8.6 -6.7 20 8.9 WSW 26 33 14 18 1016.6 1014.2 0.0
13/12:30pm 15.9 7.8 -6.4 21 8.7 WSW 28 43 15 23 1016.6 1014.2 0.0
13/12:00pm 16.9 10.6 -4.3 23 8.7 SW 20 32 11 17 1016.5 1014.1 0.0
13/11:30am 15.5 6.7 -6.1 22 8.4 WSW 32 41 17 22 1016.5 1014.1 0.0
13/11:00am 14.0 6.0 -6.2 24 7.7 SW 28 37 15 20 1016.7 1014.3 0.0
13/10:30am 13.4 6.6 -4.7 28 7.1 SW 22 33 12 18 1016.6 1014.2 0.0
13/10:00am 12.8 5.5 -6.2 26 7.1 WSW 24 33 13 18 1016.5 1014.1 0.0
13/09:30am 11.8 5.1 -3.9 33 6.2 WSW 22 30 12 16 1016.4 1014.0 0.0
13/09:00am 11.0 4.7 -4.2 34 5.9 SW 20 41 11 22 1016.4 1014.0 0.0
13/08:30am 10.2 2.4 -3.8 37 5.4 SW 28 39 15 21 1016.3 1013.8 0.0
13/08:00am 9.6 2.5 -0.9 48 4.3 WSW 26 33 14 18 1015.9 1013.5 0.0
13/07:30am 8.5 1.1 -0.5 53 3.7 SW 28 37 15 20 1015.5 1013.1 0.0
13/07:00am 7.9 0.6 -0.3 56 3.4 SW 28 35 15 19 1015.3 1012.9 0.0
13/06:30am 6.8 1.4 -1.3 56 3.2 WSW 17 22 9 12 1015.2 1012.8 0.0
13/06:00am 5.7 1.3 -2.4 56 3.1 SW 11 13 6 7 1014.9 1012.4 0.0
13/05:30am 5.7 1.7 -2.6 55 3.1 SW 9 13 5 7 1014.4 1012.0 0.0
13/05:00am 5.6 1.1 -3.0 54 3.2 WSW 11 13 6 7 1014.1 1011.7 0.0
13/04:30am 6.6 2.5 -2.8 51 3.6 SW 9 13 5 7 1014.1 1011.7 0.0
13/04:00am 7.2 2.7 -3.1 48 3.9 WSW 11 15 6 8 1014.0 1011.6 0.0
13/03:30am 7.9 2.7 -3.0 46 4.2 WSW 15 19 8 10 1013.9 1011.4 0.0
13/03:00am 7.7 2.8 -3.5 45 4.2 SW 13 17 7 9 1013.8 1011.3 0.0
13/02:30am 8.2 3.7 -3.3 44 4.4 WSW 11 15 6 8 1013.8 1011.3 0.0
13/02:00am 8.8 4.6 -3.7 41 4.8 SW 9 11 5 6 1013.8 1011.3 0.0
13/01:30am 9.5 5.3 -3.7 39 5.1 SW 9 11 5 6 1013.8 1011.3 0.0
13/01:00am 10.4 6.8 -3.3 38 5.4 WSW 6 7 3 4 1013.7 1011.2 0.0
13/12:30am 10.7 6.6 -2.7 39 5.3 SW 9 13 5 7 1013.8 1011.3 0.0
13/12:00am 11.2 6.5 -1.9 40 5.3 SW 13 15 7 8 1013.8 1011.3 0.0
 
Date/Time
EDT
Temp
°C
App
Temp
°C
Dew
Point
°C
Rel
Hum
%
Delta-T
°C
Wind Press
QNH
hPa
Press
MSL
hPa
Rain since
9am
mm
Dir  Spd
km/h
Gust
km/h
Spd
kts
Gust
kts
12/11:30pm 12.4 7.4 -1.5 38 5.8 SW 15 20 8 11 1013.6 1011.1 0.0
12/11:00pm 13.1 7.7 -1.2 37 6.0 SW 17 20 9 11 1013.4 1010.9 0.0
12/10:30pm 14.5 8.2 -1.2 34 6.7 SW 22 35 12 19 1012.9 1010.5 0.0
12/10:00pm 14.7 10.2 -0.6 35 6.7 SW 13 20 7 11 1012.5 1010.0 0.0
12/09:30pm 16.3 8.9 -0.4 32 7.4 SW 28 39 15 21 1011.8 1009.3 0.0
12/09:00pm 17.9 9.7 -0.8 28 8.3 WSW 32 43 17 23 1010.8 1008.3 0.0
12/08:30pm 18.7 12.7 0.8 30 8.3 WSW 22 28 12 15 1010.4 1007.8 0.0
12/08:00pm 19.2 11.1 -0.2 27 8.9 WSW 32 43 17 23 1009.8 1007.3 0.0
12/07:30pm 19.6 11.4 0.6 28 8.8 WSW 33 43 18 23 1009.6 1007.1 0.0
12/07:12pm 20.1 10.9 1.0 28 9.0 WSW 39 59 21 32 1009.2 1006.6 0.0
12/07:00pm 20.4 12.6 1.8 29 8.9 WSW 32 46 17 25 1009.0 1006.4 0.0
12/06:30pm 21.2 12.0 1.5 27 9.4 WSW 39 59 21 32 1008.5 1006.0 0.0
12/06:04pm 21.4 11.9 1.7 27 9.5 W 41 59 22 32 1008.4 1005.9 0.0
12/06:00pm 21.6 11.6 1.3 26 9.7 W 43 59 23 32 1008.7 1006.2 0.0
12/05:36pm 23.2 15.2 1.5 24 10.5 W 33 52 18 28 1008.1 1005.6 0.0
12/05:30pm 23.1 15.6 1.5 24 10.5 W 30 41 16 22 1008.0 1005.4 0.0
12/05:20pm 23.0 13.7 0.8 23 10.6 WSW 39 57 21 31 1007.9 1005.3 0.0
12/05:15pm 23.0 12.8 0.8 23 10.6 WSW 44 57 24 31 1008.0 1005.4 0.0
12/05:00pm 24.5 13.9 -2.1 17 12.2 WSW 44 59 24 32 1007.7 1005.1 0.0
12/04:50pm 25.4 14.7 -4.0 14 13.1 WSW 43 61 23 33 1007.2 1004.7 0.0
12/04:32pm 26.3 15.8 -6.5 11 14.1 WSW 41 56 22 30 1006.8 1004.2 0.0
12/04:30pm 26.5 16.4 -6.3 11 14.1 W 39 56 21 30 1006.7 1004.1 0.0
12/04:27pm 27.0 17.1 -7.2 10 14.6 W 37 56 20 30 1006.6 1004.0 0.0
12/04:23pm 28.0 18.2 -6.4 10 15.0 WNW 37 56 20 30 1006.7 1004.1 0.0
12/04:00pm 28.4 17.3 -6.1 10 15.2 WNW 44 61 24 33 1006.7 1004.1 0.0
12/03:38pm 29.2 18.8 -5.5 10 15.5 WNW 41 59 22 32 1006.9 1004.4 0.0
12/03:30pm 28.8 17.7 -5.8 10 15.3 NW 44 57 24 31 1007.1 1004.6 0.0
12/03:19pm 29.8 18.7 -6.4 9 16.0 NW 44 65 24 35 1007.1 1004.6 0.0
12/03:00pm 29.8 18.3 -6.4 9 16.1 WNW 46 57 25 31 1007.5 1004.9 0.0
12/02:54pm 29.1 17.9 -7.0 9 15.7 NW 44 57 24 31 1007.6 1005.0 0.0
12/02:49pm 29.1 18.1 -7.0 9 15.7 NW 43 57 23 31 1007.6 1005.0 0.0
12/02:30pm 30.8 19.8 -5.7 9 16.5 WNW 44 65 24 35 1008.0 1005.4 0.0
12/02:00pm 30.0 19.5 -6.3 9 16.2 NW 41 59 22 32 1008.5 1006.0 0.0
12/01:30pm 29.9 19.5 -5.0 10 15.8 NW 41 59 22 32 1009.0 1006.4 0.0
12/01:00pm 28.3 17.8 -6.2 10 15.2 NW 41 59 22 32 1009.5 1007.0 0.0
12/12:31pm 27.2 17.1 -5.8 11 14.4 WNW 39 57 21 31 1010.1 1007.6 0.0
12/12:30pm 28.0 18.1 -4.0 12 14.6 WNW 39 54 21 29 1010.1 1007.6 0.0
12/12:18pm 28.0 19.4 -4.0 12 14.6 NW 32 50 17 27 1010.4 1007.8 0.0
12/12:00pm 28.5 19.6 -1.6 14 14.4 NNW 35 48 19 26 1010.7 1008.2 0.0
12/11:30am 27.7 17.8 -4.3 12 14.4 WNW 39 57 21 31 1011.1 1008.6 0.0
12/11:27am 27.8 17.6 -3.1 13 14.3 WNW 41 57 22 31 1011.2 1008.7 0.0
12/11:00am 26.3 16.0 -4.3 13 13.7 NW 41 56 22 30 1011.4 1008.9 0.0
12/10:30am 25.1 14.4 -4.2 14 13.0 NW 43 57 23 31 1011.8 1009.3 0.0
12/10:00am 24.2 15.6 -2.4 17 12.1 NNW 33 48 18 26 1012.1 1009.6 0.0
12/09:58am 24.0 15.6 -2.5 17 12.0 NNW 32 46 17 25 1012.1 1009.6 0.0
12/09:30am 23.6 17.4 0.0 21 11.2 NW 22 28 12 15 1012.7 1010.2 0.0
12/09:00am 22.0 16.3 -0.7 22 10.5 NNW 19 24 10 13 1013.3 1010.8 0.0
12/08:30am 19.8 14.2 -0.2 26 9.1 N 19 22 10 12 1013.4 1010.9 0.0
12/08:00am 17.4 13.5 1.0 33 7.5 N 11 15 6 8 1013.3 1010.8 0.0
12/07:30am 13.7 11.0 2.9 48 5.0 NNE 6 9 3 5 1013.0 1010.6 0.0
12/07:00am 12.1 8.7 2.0 50 4.5 NE 9 9 5 5 1013.4 1010.9 0.0
12/06:30am 9.5 7.8 1.9 59 3.3 CALM 0 0 0 0 1013.4 1010.9 0.0
12/06:00am 9.1 7.2 0.6 55 3.6 CALM 0 0 0 0 1013.4 1010.9 0.0
12/05:30am 9.3 7.4 0.5 54 3.7 CALM 0 0 0 0 1013.0 1010.6 0.0
12/05:00am 9.3 7.3 0.0 52 3.9 CALM 0 0 0 0 1013.0 1010.6 0.0
12/04:30am 9.4 7.5 0.8 55 3.7 CALM 0 0 0 0 1013.0 1010.6 0.0
12/04:00am 8.7 5.6 0.2 55 3.6 NNE 6 6 3 3 1013.3 1010.8 0.0
12/03:30am 10.2 6.6 0.3 50 4.2 NNE 9 9 5 5 1013.6 1011.1 0.0
12/03:00am 11.2 8.0 0.6 48 4.6 NE 7 9 4 5 1014.0 1011.6 0.0
12/02:30am 11.0 7.9 0.1 47 4.6 ENE 6 9 3 5 1014.4 1012.0 0.0
12/02:00am 12.2 8.6 0.6 45 5.1 NE 9 11 5 6 1014.6 1012.1 0.0
12/01:30am 11.4 9.4 0.2 46 4.8 CALM 0 6 0 3 1015.0 1012.5 0.0
12/01:00am 13.0 9.7 0.4 42 5.5 NE 7 9 4 5 1015.4 1013.0 0.0
12/12:30am 12.9 9.7 0.6 43 5.4 NE 7 7 4 4 1015.6 1013.2 0.0
12/12:00am 13.0 10.0 0.7 43 5.4 NE 6 9 3 5 1015.7 1013.3 0.0
 
Date/Time
EDT
Temp
°C
App
Temp
°C
Dew
Point
°C
Rel
Hum
%
Delta-T
°C
Wind Press
QNH
hPa
Press
MSL
hPa
Rain since
9am
mm
Dir  Spd
km/h
Gust
km/h
Spd
kts
Gust
kts
11/11:30pm 13.4 9.7 -0.3 39 5.9 NE 9 11 5 6 1015.8 1013.4 0.0
11/11:00pm 14.5 10.9 0.4 38 6.2 NE 9 9 5 5 1015.8 1013.4 0.0
11/10:30pm 15.5 13.1 -0.3 34 7.0 NNE 2 9 1 5 1015.9 1013.5 0.0
11/10:00pm 16.4 13.2 -0.3 32 7.4 NE 6 9 3 5 1015.9 1013.5 0.0
11/09:30pm 16.4 13.2 0.5 34 7.2 W 7 9 4 5 1015.8 1013.4 0.0
11/09:00pm 18.5 15.7 -0.3 28 8.5 SW 4 6 2 3 1015.6 1013.2 0.0
11/08:30pm 18.8 15.7 -0.1 28 8.6 SW 6 9 3 5 1015.3 1012.9 0.0
11/08:00pm 18.7 15.4 -0.2 28 8.6 W 7 9 4 5 1015.2 1012.8 0.0
11/07:30pm 20.6 16.1 -0.1 25 9.6 W 13 19 7 10 1015.1 1012.6 0.0
11/07:00pm 22.6 17.4 -0.2 22 10.7 W 17 20 9 11 1014.9 1012.4 0.0
11/06:30pm 23.7 18.5 0.1 21 11.2 WNW 17 24 9 13 1014.6 1012.1 0.0
11/06:00pm 24.5 20.0 -0.6 19 11.8 W 13 20 7 11 1014.4 1012.0 0.0
11/05:30pm 24.7 20.3 0.3 20 11.7 WSW 13 19 7 10 1014.6 1012.1 0.0
11/05:00pm 25.0 20.0 1.2 21 11.6 WNW 17 30 9 16 1014.8 1012.3 0.0
11/04:30pm 24.0 18.6 1.0 22 11.1 W 19 32 10 17 1014.9 1012.4 0.0
11/04:00pm 24.6 20.0 1.5 22 11.3 WNW 15 24 8 13 1015.1 1012.6 0.0
11/03:30pm 25.5 20.4 0.9 20 12.0 W 17 28 9 15 1015.3 1012.9 0.0
11/03:00pm 24.6 18.9 -0.5 19 11.8 W 19 26 10 14 1015.7 1013.3 0.0
11/02:30pm 25.2 19.6 1.3 21 11.7 NW 20 33 11 18 1016.1 1013.6 0.0
11/02:00pm 24.7 19.2 1.6 22 11.3 WNW 20 30 11 16 1016.5 1014.1 0.0
11/01:30pm 23.6 18.7 1.9 24 10.6 W 17 28 9 15 1016.8 1014.4 0.0
11/01:00pm 22.8 17.5 1.8 25 10.2 WSW 19 33 10 18 1017.1 1014.7 0.0
11/12:30pm 22.2 16.7 1.8 26 9.9 W 20 32 11 17 1017.5 1015.0 0.0
11/12:00pm 21.0 17.6 4.1 33 8.5 NW 11 17 6 9 1017.8 1015.4 0.0
11/11:30am 21.1 18.2 4.6 34 8.4 W 9 28 5 15 1018.2 1015.8 0.0
11/11:00am 19.3 16.5 5.0 39 7.2 SW 9 20 5 11 1018.4 1016.0 0.0
11/10:30am 18.3 16.0 5.5 43 6.5 W 7 15 4 8 1018.6 1016.2 0.0
11/10:00am 17.9 15.4 6.7 48 5.8 WNW 9 17 5 9 1018.6 1016.2 0.0
11/09:30am 16.1 13.8 5.7 50 5.2 NW 7 11 4 6 1018.6 1016.2 0.0
11/09:00am 13.8 11.4 5.2 56 4.2 NW 7 11 4 6 1019.0 1016.6 0.0
11/08:30am 12.2 10.8 5.6 64 3.2 W 2 7 1 4 1018.6 1016.2 0.0
11/08:00am 10.2 9.1 5.2 71 2.4 CALM 0 0 0 0 1018.4 1016.0 0.0
11/07:30am 7.4 5.2 5.2 86 1.0 SW 6 7 3 4 1018.3 1015.9 0.0
11/07:00am 6.7 4.2 4.7 87 0.9 S 7 9 4 5 1018.0 1015.6 0.0
11/06:30am 5.3 3.7 4.4 94 0.4 E 2 7 1 4 1017.8 1015.4 0.0
11/06:00am 5.1 3.8 4.1 93 0.4 CALM 0 0 0 0 1017.6 1015.2 0.0
11/05:30am 4.4 2.9 3.1 91 0.6 CALM 0 6 0 3 1017.2 1014.8 0.0
11/05:00am 6.1 3.5 4.1 87 0.9 SE 7 11 4 6 1017.2 1014.8 0.0
11/04:30am 6.4 4.2 3.4 81 1.3 SE 4 7 2 4 1017.0 1014.6 0.0
11/04:00am 7.9 6.7 4.8 81 1.4 CALM 0 0 0 0 1017.0 1014.6 0.0
11/03:30am 7.7 6.5 4.5 80 1.5 CALM 0 0 0 0 1017.0 1014.6 0.0
11/03:00am 7.9 6.5 3.8 75 1.8 CALM 0 0 0 0 1017.1 1014.7 0.0
11/02:30am 8.8 7.2 4.4 74 2.0 ENE 2 6 1 3 1017.0 1014.6 0.0
11/02:00am 9.3 8.1 4.5 72 2.2 CALM 0 0 0 0 1017.1 1014.7 0.0
11/01:30am 9.1 6.2 4.7 74 2.0 NE 9 9 5 5 1017.3 1014.9 0.0

Other formats

Comma delimited format used in spreadsheet applications
http://www.bom.gov.au/fwo/IDN60801/IDN60801.94729.axf

JavaScript Object Notation format (JSON) in row-major order
http://www.bom.gov.au/fwo/IDN60801/IDN60801.94729.json

Data quality

Most of these data are generated automatically and are frequently updated. Quality checks on data are not normally performed. It is possible for incorrect values to appear. Refer to information at About Latest Weather Observations and please check the disclaimer before using these data.